sensor_id;sensor_type;location;lat;lon;timestamp;P1;durP1;ratioP1;P2;durP2;ratioP2
26040;SDS011;13816;53.628;9.950;2023-03-05T00:02:44;10.70;;;2.20;;
26040;SDS011;13816;53.628;9.950;2023-03-05T00:05:42;4.97;;;1.40;;
26040;SDS011;13816;53.628;9.950;2023-03-05T00:11:15;10.20;;;2.40;;
26040;SDS011;13816;53.628;9.950;2023-03-05T00:17:44;4.60;;;1.53;;
26040;SDS011;13816;53.628;9.950;2023-03-05T00:20:33;9.43;;;1.77;;
26040;SDS011;13816;53.628;9.950;2023-03-05T00:23:08;10.13;;;2.07;;
26040;SDS011;13816;53.628;9.950;2023-03-05T00:25:42;7.13;;;1.53;;
26040;SDS011;13816;53.628;9.950;2023-03-05T00:28:12;14.83;;;1.60;;
26040;SDS011;13816;53.628;9.950;2023-03-05T00:30:44;9.50;;;1.50;;
26040;SDS011;13816;53.628;9.950;2023-03-05T00:33:19;8.40;;;1.43;;
26040;SDS011;13816;53.628;9.950;2023-03-05T00:35:52;5.27;;;2.00;;
26040;SDS011;13816;53.628;9.950;2023-03-05T00:38:18;17.63;;;2.07;;
26040;SDS011;13816;53.628;9.950;2023-03-05T00:40:45;5.30;;;1.57;;
26040;SDS011;13816;53.628;9.950;2023-03-05T00:43:11;14.73;;;2.03;;
26040;SDS011;13816;53.628;9.950;2023-03-05T00:45:38;7.10;;;1.50;;
26040;SDS011;13816;53.628;9.950;2023-03-05T00:48:04;8.63;;;1.53;;
26040;SDS011;13816;53.628;9.950;2023-03-05T00:50:30;11.27;;;2.00;;
26040;SDS011;13816;53.628;9.950;2023-03-05T00:52:57;7.10;;;1.70;;
26040;SDS011;13816;53.628;9.950;2023-03-05T00:55:24;4.60;;;2.07;;
26040;SDS011;13816;53.628;9.950;2023-03-05T00:57:50;9.60;;;2.87;;
26040;SDS011;13816;53.628;9.950;2023-03-05T01:00:16;9.50;;;1.97;;
26040;SDS011;13816;53.628;9.950;2023-03-05T01:02:43;7.30;;;2.23;;
26040;SDS011;13816;53.628;9.950;2023-03-05T01:05:10;13.97;;;3.50;;
26040;SDS011;13816;53.628;9.950;2023-03-05T01:07:37;3.43;;;1.40;;
26040;SDS011;13816;53.628;9.950;2023-03-05T01:10:03;4.90;;;1.43;;
26040;SDS011;13816;53.628;9.950;2023-03-05T01:12:30;6.50;;;2.17;;
26040;SDS011;13816;53.628;9.950;2023-03-05T01:14:56;5.80;;;1.47;;
26040;SDS011;13816;53.628;9.950;2023-03-05T01:17:22;7.63;;;2.27;;
26040;SDS011;13816;53.628;9.950;2023-03-05T01:19:49;9.10;;;2.37;;
26040;SDS011;13816;53.628;9.950;2023-03-05T01:22:15;7.00;;;2.13;;
26040;SDS011;13816;53.628;9.950;2023-03-05T01:24:41;8.83;;;2.80;;
26040;SDS011;13816;53.628;9.950;2023-03-05T01:27:08;13.53;;;2.57;;
26040;SDS011;13816;53.628;9.950;2023-03-05T01:29:35;8.20;;;1.90;;
26040;SDS011;13816;53.628;9.950;2023-03-05T01:32:02;5.70;;;2.30;;
26040;SDS011;13816;53.628;9.950;2023-03-05T01:34:28;4.93;;;1.63;;
26040;SDS011;13816;53.628;9.950;2023-03-05T01:36:54;4.43;;;2.27;;
26040;SDS011;13816;53.628;9.950;2023-03-05T01:39:21;8.30;;;1.60;;
26040;SDS011;13816;53.628;9.950;2023-03-05T01:41:47;8.67;;;1.67;;
26040;SDS011;13816;53.628;9.950;2023-03-05T01:44:21;5.50;;;1.83;;
26040;SDS011;13816;53.628;9.950;2023-03-05T01:46:47;7.87;;;2.53;;
26040;SDS011;13816;53.628;9.950;2023-03-05T01:49:20;6.13;;;1.93;;
26040;SDS011;13816;53.628;9.950;2023-03-05T01:52:04;12.10;;;2.07;;
26040;SDS011;13816;53.628;9.950;2023-03-05T01:54:38;10.13;;;2.23;;
26040;SDS011;13816;53.628;9.950;2023-03-05T01:57:10;7.20;;;2.90;;
26040;SDS011;13816;53.628;9.950;2023-03-05T01:59:37;11.73;;;2.53;;
26040;SDS011;13816;53.628;9.950;2023-03-05T02:02:04;6.83;;;2.57;;
26040;SDS011;13816;53.628;9.950;2023-03-05T02:04:35;3.97;;;2.00;;
26040;SDS011;13816;53.628;9.950;2023-03-05T02:07:03;10.10;;;2.07;;
26040;SDS011;13816;53.628;9.950;2023-03-05T02:09:29;9.03;;;2.37;;
26040;SDS011;13816;53.628;9.950;2023-03-05T02:11:56;7.17;;;2.10;;
26040;SDS011;13816;53.628;9.950;2023-03-05T02:14:22;11.57;;;2.53;;
26040;SDS011;13816;53.628;9.950;2023-03-05T02:16:50;9.30;;;2.30;;
26040;SDS011;13816;53.628;9.950;2023-03-05T02:19:16;5.63;;;2.63;;
26040;SDS011;13816;53.628;9.950;2023-03-05T02:21:44;6.73;;;2.60;;
26040;SDS011;13816;53.628;9.950;2023-03-05T02:24:12;4.07;;;2.20;;
26040;SDS011;13816;53.628;9.950;2023-03-05T02:26:38;5.23;;;1.40;;
26040;SDS011;13816;53.628;9.950;2023-03-05T02:29:05;8.83;;;2.40;;
26040;SDS011;13816;53.628;9.950;2023-03-05T02:31:34;8.77;;;1.67;;
26040;SDS011;13816;53.628;9.950;2023-03-05T02:34:04;7.40;;;2.50;;
26040;SDS011;13816;53.628;9.950;2023-03-05T02:36:36;5.00;;;1.60;;
26040;SDS011;13816;53.628;9.950;2023-03-05T02:39:03;5.03;;;1.90;;
26040;SDS011;13816;53.628;9.950;2023-03-05T02:41:29;6.40;;;2.17;;
26040;SDS011;13816;53.628;9.950;2023-03-05T02:43:57;7.03;;;2.17;;
26040;SDS011;13816;53.628;9.950;2023-03-05T02:46:24;5.40;;;1.97;;
26040;SDS011;13816;53.628;9.950;2023-03-05T02:48:51;4.60;;;1.80;;
26040;SDS011;13816;53.628;9.950;2023-03-05T02:51:17;4.30;;;2.10;;
26040;SDS011;13816;53.628;9.950;2023-03-05T02:53:45;7.27;;;1.67;;
26040;SDS011;13816;53.628;9.950;2023-03-05T02:56:11;6.83;;;1.90;;
26040;SDS011;13816;53.628;9.950;2023-03-05T02:58:38;1.70;;;1.60;;
26040;SDS011;13816;53.628;9.950;2023-03-05T03:01:07;3.10;;;1.63;;
26040;SDS011;13816;53.628;9.950;2023-03-05T03:03:34;5.77;;;2.20;;
26040;SDS011;13816;53.628;9.950;2023-03-05T03:06:00;9.30;;;2.50;;
26040;SDS011;13816;53.628;9.950;2023-03-05T03:08:27;6.80;;;3.00;;
26040;SDS011;13816;53.628;9.950;2023-03-05T03:11:02;4.63;;;2.13;;
26040;SDS011;13816;53.628;9.950;2023-03-05T03:13:32;7.80;;;2.43;;
26040;SDS011;13816;53.628;9.950;2023-03-05T03:16:02;8.40;;;2.57;;
26040;SDS011;13816;53.628;9.950;2023-03-05T03:18:28;10.43;;;2.07;;
26040;SDS011;13816;53.628;9.950;2023-03-05T03:20:55;9.47;;;2.37;;
26040;SDS011;13816;53.628;9.950;2023-03-05T03:23:21;4.17;;;2.53;;
26040;SDS011;13816;53.628;9.950;2023-03-05T03:25:50;5.90;;;2.20;;
26040;SDS011;13816;53.628;9.950;2023-03-05T03:28:18;7.03;;;2.20;;
26040;SDS011;13816;53.628;9.950;2023-03-05T03:30:44;7.17;;;2.10;;
26040;SDS011;13816;53.628;9.950;2023-03-05T03:33:14;6.57;;;1.93;;
26040;SDS011;13816;53.628;9.950;2023-03-05T03:35:43;6.73;;;2.53;;
26040;SDS011;13816;53.628;9.950;2023-03-05T03:38:10;7.90;;;2.37;;
26040;SDS011;13816;53.628;9.950;2023-03-05T03:40:38;4.93;;;2.97;;
26040;SDS011;13816;53.628;9.950;2023-03-05T03:43:04;4.53;;;2.60;;
26040;SDS011;13816;53.628;9.950;2023-03-05T03:45:31;12.03;;;2.47;;
26040;SDS011;13816;53.628;9.950;2023-03-05T03:47:57;6.40;;;2.40;;
26040;SDS011;13816;53.628;9.950;2023-03-05T03:50:26;3.90;;;2.17;;
26040;SDS011;13816;53.628;9.950;2023-03-05T03:53:02;4.90;;;2.50;;
26040;SDS011;13816;53.628;9.950;2023-03-05T03:55:31;6.27;;;2.70;;
26040;SDS011;13816;53.628;9.950;2023-03-05T03:57:57;12.50;;;3.20;;
26040;SDS011;13816;53.628;9.950;2023-03-05T04:00:26;6.37;;;2.40;;
26040;SDS011;13816;53.628;9.950;2023-03-05T04:02:55;5.60;;;2.30;;
26040;SDS011;13816;53.628;9.950;2023-03-05T04:05:22;15.80;;;3.33;;
26040;SDS011;13816;53.628;9.950;2023-03-05T04:07:51;16.47;;;3.27;;
26040;SDS011;13816;53.628;9.950;2023-03-05T04:10:17;8.97;;;3.20;;
26040;SDS011;13816;53.628;9.950;2023-03-05T04:12:43;5.27;;;3.63;;
26040;SDS011;13816;53.628;9.950;2023-03-05T04:15:14;7.97;;;3.90;;
26040;SDS011;13816;53.628;9.950;2023-03-05T04:17:40;10.03;;;4.30;;
26040;SDS011;13816;53.628;9.950;2023-03-05T04:20:07;13.47;;;4.60;;
26040;SDS011;13816;53.628;9.950;2023-03-05T04:22:36;7.20;;;4.70;;
26040;SDS011;13816;53.628;9.950;2023-03-05T04:25:03;5.53;;;4.10;;
26040;SDS011;13816;53.628;9.950;2023-03-05T04:27:32;6.50;;;4.23;;
26040;SDS011;13816;53.628;9.950;2023-03-05T04:30:00;8.07;;;5.00;;
26040;SDS011;13816;53.628;9.950;2023-03-05T04:32:26;10.93;;;5.03;;
26040;SDS011;13816;53.628;9.950;2023-03-05T04:34:56;8.13;;;5.17;;
26040;SDS011;13816;53.628;9.950;2023-03-05T04:37:23;5.93;;;4.23;;
26040;SDS011;13816;53.628;9.950;2023-03-05T04:39:50;8.03;;;4.77;;
26040;SDS011;13816;53.628;9.950;2023-03-05T04:42:19;6.83;;;4.43;;
26040;SDS011;13816;53.628;9.950;2023-03-05T04:44:46;8.70;;;4.20;;
26040;SDS011;13816;53.628;9.950;2023-03-05T04:47:13;9.20;;;4.27;;
26040;SDS011;13816;53.628;9.950;2023-03-05T04:49:39;5.40;;;3.37;;
26040;SDS011;13816;53.628;9.950;2023-03-05T04:52:06;7.50;;;3.03;;
26040;SDS011;13816;53.628;9.950;2023-03-05T04:54:32;8.80;;;2.73;;
26040;SDS011;13816;53.628;9.950;2023-03-05T04:57:04;8.63;;;3.20;;
26040;SDS011;13816;53.628;9.950;2023-03-05T04:59:36;8.73;;;2.63;;
26040;SDS011;13816;53.628;9.950;2023-03-05T05:02:04;9.60;;;1.90;;
26040;SDS011;13816;53.628;9.950;2023-03-05T05:04:31;4.97;;;2.37;;
26040;SDS011;13816;53.628;9.950;2023-03-05T05:06:57;6.47;;;2.63;;
26040;SDS011;13816;53.628;9.950;2023-03-05T05:09:26;6.00;;;2.70;;
26040;SDS011;13816;53.628;9.950;2023-03-05T05:11:52;5.27;;;2.47;;
26040;SDS011;13816;53.628;9.950;2023-03-05T05:14:19;3.70;;;2.17;;
26040;SDS011;13816;53.628;9.950;2023-03-05T05:16:45;6.57;;;2.67;;
26040;SDS011;13816;53.628;9.950;2023-03-05T05:19:11;7.90;;;2.50;;
26040;SDS011;13816;53.628;9.950;2023-03-05T05:21:41;7.50;;;3.73;;
26040;SDS011;13816;53.628;9.950;2023-03-05T05:24:07;4.70;;;1.83;;
26040;SDS011;13816;53.628;9.950;2023-03-05T05:26:34;4.77;;;2.37;;
26040;SDS011;13816;53.628;9.950;2023-03-05T05:29:03;10.77;;;2.50;;
26040;SDS011;13816;53.628;9.950;2023-03-05T05:31:29;8.63;;;2.40;;
26040;SDS011;13816;53.628;9.950;2023-03-05T05:33:56;10.17;;;2.17;;
26040;SDS011;13816;53.628;9.950;2023-03-05T05:36:25;4.57;;;2.07;;
26040;SDS011;13816;53.628;9.950;2023-03-05T05:38:59;7.20;;;2.00;;
26040;SDS011;13816;53.628;9.950;2023-03-05T05:41:28;9.83;;;2.10;;
26040;SDS011;13816;53.628;9.950;2023-03-05T05:46:45;5.17;;;1.70;;
26040;SDS011;13816;53.628;9.950;2023-03-05T05:49:12;3.03;;;1.53;;
26040;SDS011;13816;53.628;9.950;2023-03-05T05:51:38;1.47;;;1.30;;
26040;SDS011;13816;53.628;9.950;2023-03-05T05:54:04;12.10;;;2.67;;
26040;SDS011;13816;53.628;9.950;2023-03-05T05:56:35;4.20;;;1.10;;
26040;SDS011;13816;53.628;9.950;2023-03-05T05:59:04;5.13;;;1.63;;
26040;SDS011;13816;53.628;9.950;2023-03-05T06:01:36;5.37;;;1.40;;
26040;SDS011;13816;53.628;9.950;2023-03-05T06:04:02;9.13;;;1.70;;
26040;SDS011;13816;53.628;9.950;2023-03-05T06:06:29;3.17;;;1.63;;
26040;SDS011;13816;53.628;9.950;2023-03-05T06:08:55;4.40;;;1.20;;
26040;SDS011;13816;53.628;9.950;2023-03-05T06:11:25;11.50;;;1.83;;
26040;SDS011;13816;53.628;9.950;2023-03-05T06:13:54;3.10;;;0.90;;
26040;SDS011;13816;53.628;9.950;2023-03-05T06:16:22;4.37;;;1.70;;
26040;SDS011;13816;53.628;9.950;2023-03-05T06:18:51;10.30;;;1.63;;
26040;SDS011;13816;53.628;9.950;2023-03-05T06:21:18;6.20;;;1.30;;
26040;SDS011;13816;53.628;9.950;2023-03-05T06:23:45;7.80;;;1.10;;
26040;SDS011;13816;53.628;9.950;2023-03-05T06:26:19;1.67;;;1.00;;
26040;SDS011;13816;53.628;9.950;2023-03-05T06:28:46;2.77;;;1.20;;
26040;SDS011;13816;53.628;9.950;2023-03-05T06:31:14;5.43;;;1.07;;
26040;SDS011;13816;53.628;9.950;2023-03-05T06:33:41;6.20;;;1.27;;
26040;SDS011;13816;53.628;9.950;2023-03-05T06:39:06;8.70;;;1.80;;
26040;SDS011;13816;53.628;9.950;2023-03-05T06:41:32;3.40;;;1.10;;
26040;SDS011;13816;53.628;9.950;2023-03-05T06:43:59;1.60;;;1.10;;
26040;SDS011;13816;53.628;9.950;2023-03-05T06:46:27;4.80;;;1.10;;
26040;SDS011;13816;53.628;9.950;2023-03-05T06:48:54;6.03;;;1.33;;
26040;SDS011;13816;53.628;9.950;2023-03-05T06:51:22;4.83;;;1.10;;
26040;SDS011;13816;53.628;9.950;2023-03-05T06:53:49;2.43;;;1.10;;
26040;SDS011;13816;53.628;9.950;2023-03-05T06:56:16;5.10;;;1.20;;
26040;SDS011;13816;53.628;9.950;2023-03-05T06:58:45;2.00;;;1.00;;
26040;SDS011;13816;53.628;9.950;2023-03-05T07:01:12;5.57;;;1.30;;
26040;SDS011;13816;53.628;9.950;2023-03-05T07:03:38;8.13;;;1.27;;
26040;SDS011;13816;53.628;9.950;2023-03-05T07:06:05;4.27;;;1.20;;
26040;SDS011;13816;53.628;9.950;2023-03-05T07:08:31;2.30;;;1.10;;
26040;SDS011;13816;53.628;9.950;2023-03-05T07:10:58;7.23;;;1.10;;
26040;SDS011;13816;53.628;9.950;2023-03-05T07:13:24;3.23;;;1.00;;
26040;SDS011;13816;53.628;9.950;2023-03-05T07:15:50;7.97;;;1.27;;
26040;SDS011;13816;53.628;9.950;2023-03-05T07:18:16;5.47;;;1.70;;
26040;SDS011;13816;53.628;9.950;2023-03-05T07:20:42;4.30;;;1.77;;
26040;SDS011;13816;53.628;9.950;2023-03-05T07:23:08;7.63;;;1.70;;
26040;SDS011;13816;53.628;9.950;2023-03-05T07:25:35;5.67;;;1.33;;
26040;SDS011;13816;53.628;9.950;2023-03-05T07:28:02;6.07;;;2.60;;
26040;SDS011;13816;53.628;9.950;2023-03-05T07:30:29;5.60;;;1.63;;
26040;SDS011;13816;53.628;9.950;2023-03-05T07:32:56;3.97;;;1.80;;
26040;SDS011;13816;53.628;9.950;2023-03-05T07:35:22;14.67;;;2.50;;
26040;SDS011;13816;53.628;9.950;2023-03-05T07:37:51;9.83;;;2.30;;
26040;SDS011;13816;53.628;9.950;2023-03-05T07:40:19;5.30;;;2.37;;
26040;SDS011;13816;53.628;9.950;2023-03-05T07:42:46;4.90;;;1.77;;
26040;SDS011;13816;53.628;9.950;2023-03-05T07:45:22;5.80;;;2.00;;
26040;SDS011;13816;53.628;9.950;2023-03-05T07:47:48;5.57;;;1.90;;
26040;SDS011;13816;53.628;9.950;2023-03-05T07:50:14;8.63;;;1.53;;
26040;SDS011;13816;53.628;9.950;2023-03-05T07:52:41;3.83;;;1.70;;
26040;SDS011;13816;53.628;9.950;2023-03-05T07:55:07;5.13;;;1.40;;
26040;SDS011;13816;53.628;9.950;2023-03-05T07:57:34;6.07;;;1.50;;
26040;SDS011;13816;53.628;9.950;2023-03-05T08:00:03;10.30;;;1.80;;
26040;SDS011;13816;53.628;9.950;2023-03-05T08:02:36;5.97;;;1.90;;
26040;SDS011;13816;53.628;9.950;2023-03-05T08:05:02;2.27;;;1.07;;
26040;SDS011;13816;53.628;9.950;2023-03-05T08:07:29;4.43;;;1.70;;
26040;SDS011;13816;53.628;9.950;2023-03-05T08:09:55;5.43;;;1.30;;
26040;SDS011;13816;53.628;9.950;2023-03-05T08:12:21;2.30;;;1.13;;
26040;SDS011;13816;53.628;9.950;2023-03-05T08:14:47;4.73;;;1.93;;
26040;SDS011;13816;53.628;9.950;2023-03-05T08:17:13;5.83;;;1.70;;
26040;SDS011;13816;53.628;9.950;2023-03-05T08:19:39;4.93;;;1.40;;
26040;SDS011;13816;53.628;9.950;2023-03-05T08:22:05;1.67;;;1.00;;
26040;SDS011;13816;53.628;9.950;2023-03-05T08:24:31;5.40;;;1.40;;
26040;SDS011;13816;53.628;9.950;2023-03-05T08:26:58;2.43;;;1.30;;
26040;SDS011;13816;53.628;9.950;2023-03-05T08:29:24;3.60;;;1.70;;
26040;SDS011;13816;53.628;9.950;2023-03-05T08:31:51;6.50;;;1.87;;
26040;SDS011;13816;53.628;9.950;2023-03-05T08:34:18;4.10;;;1.70;;
26040;SDS011;13816;53.628;9.950;2023-03-05T08:36:45;5.60;;;1.57;;
26040;SDS011;13816;53.628;9.950;2023-03-05T08:39:11;6.93;;;2.17;;
26040;SDS011;13816;53.628;9.950;2023-03-05T08:41:37;5.00;;;1.73;;
26040;SDS011;13816;53.628;9.950;2023-03-05T08:44:03;7.73;;;1.90;;
26040;SDS011;13816;53.628;9.950;2023-03-05T08:46:29;5.70;;;1.53;;
26040;SDS011;13816;53.628;9.950;2023-03-05T08:48:56;4.33;;;1.63;;
26040;SDS011;13816;53.628;9.950;2023-03-05T08:51:22;5.90;;;1.60;;
26040;SDS011;13816;53.628;9.950;2023-03-05T08:53:50;7.17;;;1.93;;
26040;SDS011;13816;53.628;9.950;2023-03-05T08:56:17;5.47;;;1.80;;
26040;SDS011;13816;53.628;9.950;2023-03-05T08:58:43;4.90;;;2.07;;
26040;SDS011;13816;53.628;9.950;2023-03-05T09:01:10;4.83;;;1.83;;
26040;SDS011;13816;53.628;9.950;2023-03-05T09:03:37;7.90;;;2.20;;
26040;SDS011;13816;53.628;9.950;2023-03-05T09:06:07;7.73;;;2.20;;
26040;SDS011;13816;53.628;9.950;2023-03-05T09:08:34;1.67;;;1.50;;
26040;SDS011;13816;53.628;9.950;2023-03-05T09:11:02;5.90;;;1.63;;
26040;SDS011;13816;53.628;9.950;2023-03-05T09:13:28;5.80;;;1.80;;
26040;SDS011;13816;53.628;9.950;2023-03-05T09:15:56;2.40;;;2.20;;
26040;SDS011;13816;53.628;9.950;2023-03-05T09:18:22;4.70;;;1.90;;
26040;SDS011;13816;53.628;9.950;2023-03-05T09:20:48;7.87;;;2.73;;
26040;SDS011;13816;53.628;9.950;2023-03-05T09:23:14;6.97;;;2.60;;
26040;SDS011;13816;53.628;9.950;2023-03-05T09:25:42;8.10;;;2.40;;
26040;SDS011;13816;53.628;9.950;2023-03-05T09:28:08;4.33;;;2.20;;
26040;SDS011;13816;53.628;9.950;2023-03-05T09:30:34;10.33;;;2.60;;
26040;SDS011;13816;53.628;9.950;2023-03-05T09:33:01;6.87;;;2.07;;
26040;SDS011;13816;53.628;9.950;2023-03-05T09:35:27;4.00;;;1.47;;
26040;SDS011;13816;53.628;9.950;2023-03-05T09:37:53;5.50;;;1.83;;
26040;SDS011;13816;53.628;9.950;2023-03-05T09:40:19;5.50;;;2.03;;
26040;SDS011;13816;53.628;9.950;2023-03-05T09:45:24;4.33;;;1.97;;
26040;SDS011;13816;53.628;9.950;2023-03-05T09:47:53;5.10;;;1.80;;
26040;SDS011;13816;53.628;9.950;2023-03-05T09:50:35;10.87;;;1.90;;
26040;SDS011;13816;53.628;9.950;2023-03-05T09:55:44;5.83;;;1.73;;
26040;SDS011;13816;53.628;9.950;2023-03-05T09:58:17;3.27;;;1.50;;
26040;SDS011;13816;53.628;9.950;2023-03-05T10:00:46;3.53;;;1.77;;
26040;SDS011;13816;53.628;9.950;2023-03-05T10:03:30;7.20;;;2.23;;
26040;SDS011;13816;53.628;9.950;2023-03-05T10:12:09;4.40;;;1.70;;
26040;SDS011;13816;53.628;9.950;2023-03-05T10:14:39;5.47;;;1.70;;
26040;SDS011;13816;53.628;9.950;2023-03-05T10:22:53;6.37;;;2.37;;
26040;SDS011;13816;53.628;9.950;2023-03-05T10:25:23;6.63;;;2.00;;
26040;SDS011;13816;53.628;9.950;2023-03-05T10:27:54;2.77;;;1.70;;
26040;SDS011;13816;53.628;9.950;2023-03-05T10:40:37;4.70;;;1.87;;
26040;SDS011;13816;53.628;9.950;2023-03-05T10:43:16;11.73;;;4.57;;
26040;SDS011;13816;53.628;9.950;2023-03-05T10:45:45;6.40;;;1.53;;
26040;SDS011;13816;53.628;9.950;2023-03-05T10:50:52;10.50;;;2.00;;
26040;SDS011;13816;53.628;9.950;2023-03-05T10:53:27;7.47;;;1.63;;
26040;SDS011;13816;53.628;9.950;2023-03-05T10:55:59;15.50;;;1.83;;
26040;SDS011;13816;53.628;9.950;2023-03-05T10:58:26;5.67;;;1.80;;
26040;SDS011;13816;53.628;9.950;2023-03-05T11:06:39;7.37;;;1.37;;
26040;SDS011;13816;53.628;9.950;2023-03-05T11:11:42;5.90;;;1.20;;
26040;SDS011;13816;53.628;9.950;2023-03-05T11:14:22;4.63;;;1.53;;
26040;SDS011;13816;53.628;9.950;2023-03-05T11:16:54;4.27;;;1.20;;
26040;SDS011;13816;53.628;9.950;2023-03-05T11:19:31;3.47;;;1.50;;
26040;SDS011;13816;53.628;9.950;2023-03-05T11:24:35;6.90;;;1.60;;
26040;SDS011;13816;53.628;9.950;2023-03-05T11:27:07;1.97;;;1.40;;
26040;SDS011;13816;53.628;9.950;2023-03-05T11:29:47;4.00;;;1.73;;
26040;SDS011;13816;53.628;9.950;2023-03-05T11:32:21;2.30;;;1.53;;
26040;SDS011;13816;53.628;9.950;2023-03-05T11:34:48;4.77;;;1.70;;
26040;SDS011;13816;53.628;9.950;2023-03-05T11:37:24;6.50;;;2.23;;
26040;SDS011;13816;53.628;9.950;2023-03-05T11:40:04;5.80;;;2.00;;
26040;SDS011;13816;53.628;9.950;2023-03-05T11:42:37;5.70;;;1.83;;
26040;SDS011;13816;53.628;9.950;2023-03-05T11:45:04;1.50;;;1.40;;
26040;SDS011;13816;53.628;9.950;2023-03-05T11:50:15;4.93;;;2.03;;
26040;SDS011;13816;53.628;9.950;2023-03-05T11:52:44;4.10;;;1.87;;
26040;SDS011;13816;53.628;9.950;2023-03-05T11:55:16;4.13;;;2.00;;
26040;SDS011;13816;53.628;9.950;2023-03-05T11:57:45;4.60;;;1.77;;
26040;SDS011;13816;53.628;9.950;2023-03-05T12:00:14;3.90;;;1.67;;
26040;SDS011;13816;53.628;9.950;2023-03-05T12:02:40;2.27;;;1.70;;
26040;SDS011;13816;53.628;9.950;2023-03-05T12:05:07;3.53;;;2.00;;
26040;SDS011;13816;53.628;9.950;2023-03-05T12:07:34;3.70;;;1.67;;
26040;SDS011;13816;53.628;9.950;2023-03-05T12:10:02;8.70;;;1.73;;
26040;SDS011;13816;53.628;9.950;2023-03-05T12:17:52;2.40;;;1.13;;
26040;SDS011;13816;53.628;9.950;2023-03-05T12:20:25;3.03;;;0.97;;
26040;SDS011;13816;53.628;9.950;2023-03-05T12:22:54;1.20;;;1.10;;
26040;SDS011;13816;53.628;9.950;2023-03-05T12:27:53;4.20;;;0.90;;
26040;SDS011;13816;53.628;9.950;2023-03-05T12:33:02;9.30;;;0.90;;
26040;SDS011;13816;53.628;9.950;2023-03-05T12:35:38;3.10;;;0.97;;
26040;SDS011;13816;53.628;9.950;2023-03-05T12:46:41;1.53;;;0.63;;
26040;SDS011;13816;53.628;9.950;2023-03-05T12:49:40;2.53;;;1.00;;
26040;SDS011;13816;53.628;9.950;2023-03-05T12:52:24;3.03;;;0.87;;
26040;SDS011;13816;53.628;9.950;2023-03-05T12:55:03;1.77;;;0.90;;
26040;SDS011;13816;53.628;9.950;2023-03-05T12:57:45;7.03;;;1.00;;
26040;SDS011;13816;53.628;9.950;2023-03-05T13:08:08;3.50;;;0.80;;
26040;SDS011;13816;53.628;9.950;2023-03-05T13:11:17;2.27;;;0.93;;
26040;SDS011;13816;53.628;9.950;2023-03-05T13:14:24;2.10;;;1.33;;
26040;SDS011;13816;53.628;9.950;2023-03-05T13:16:46;3.53;;;1.10;;
26040;SDS011;13816;53.628;9.950;2023-03-05T13:19:42;3.40;;;1.17;;
26040;SDS011;13816;53.628;9.950;2023-03-05T13:22:09;4.40;;;0.90;;
26040;SDS011;13816;53.628;9.950;2023-03-05T13:24:48;2.87;;;0.90;;
26040;SDS011;13816;53.628;9.950;2023-03-05T13:27:33;2.10;;;0.90;;
26040;SDS011;13816;53.628;9.950;2023-03-05T13:30:37;2.40;;;1.33;;
26040;SDS011;13816;53.628;9.950;2023-03-05T13:33:34;4.93;;;1.00;;
26040;SDS011;13816;53.628;9.950;2023-03-05T13:36:25;3.93;;;1.10;;
26040;SDS011;13816;53.628;9.950;2023-03-05T13:42:04;10.83;;;1.00;;
26040;SDS011;13816;53.628;9.950;2023-03-05T13:44:33;2.63;;;0.83;;
26040;SDS011;13816;53.628;9.950;2023-03-05T13:47:20;1.90;;;1.00;;
26040;SDS011;13816;53.628;9.950;2023-03-05T13:57:30;4.17;;;1.50;;
26040;SDS011;13816;53.628;9.950;2023-03-05T14:03:26;3.10;;;1.33;;
26040;SDS011;13816;53.628;9.950;2023-03-05T14:06:20;2.67;;;1.07;;
26040;SDS011;13816;53.628;9.950;2023-03-05T14:11:25;2.97;;;1.60;;
26040;SDS011;13816;53.628;9.950;2023-03-05T14:14:01;6.00;;;1.47;;
26040;SDS011;13816;53.628;9.950;2023-03-05T14:16:32;5.93;;;1.50;;
26040;SDS011;13816;53.628;9.950;2023-03-05T14:19:00;6.20;;;1.47;;
26040;SDS011;13816;53.628;9.950;2023-03-05T14:24:17;3.10;;;1.30;;
26040;SDS011;13816;53.628;9.950;2023-03-05T14:26:55;1.70;;;1.23;;
26040;SDS011;13816;53.628;9.950;2023-03-05T14:29:44;1.83;;;0.80;;
26040;SDS011;13816;53.628;9.950;2023-03-05T14:32:33;3.20;;;0.90;;
26040;SDS011;13816;53.628;9.950;2023-03-05T14:35:03;6.10;;;1.17;;
26040;SDS011;13816;53.628;9.950;2023-03-05T14:37:38;14.37;;;1.03;;
26040;SDS011;13816;53.628;9.950;2023-03-05T14:40:26;2.93;;;0.87;;
26040;SDS011;13816;53.628;9.950;2023-03-05T14:42:53;5.10;;;1.17;;
26040;SDS011;13816;53.628;9.950;2023-03-05T14:45:27;5.83;;;1.00;;
26040;SDS011;13816;53.628;9.950;2023-03-05T14:47:55;9.83;;;1.23;;
26040;SDS011;13816;53.628;9.950;2023-03-05T14:51:09;1.90;;;0.90;;
26040;SDS011;13816;53.628;9.950;2023-03-05T14:53:43;9.23;;;1.33;;
26040;SDS011;13816;53.628;9.950;2023-03-05T14:56:29;4.93;;;0.70;;
26040;SDS011;13816;53.628;9.950;2023-03-05T14:58:58;3.27;;;0.93;;
26040;SDS011;13816;53.628;9.950;2023-03-05T15:01:25;7.23;;;1.10;;
26040;SDS011;13816;53.628;9.950;2023-03-05T15:04:04;2.77;;;1.13;;
26040;SDS011;13816;53.628;9.950;2023-03-05T15:06:36;3.30;;;1.17;;
26040;SDS011;13816;53.628;9.950;2023-03-05T15:09:06;2.93;;;1.33;;
26040;SDS011;13816;53.628;9.950;2023-03-05T15:11:54;1.53;;;1.00;;
26040;SDS011;13816;53.628;9.950;2023-03-05T15:14:23;5.10;;;1.60;;
26040;SDS011;13816;53.628;9.950;2023-03-05T15:16:52;6.20;;;1.30;;
26040;SDS011;13816;53.628;9.950;2023-03-05T15:19:18;5.83;;;1.60;;
26040;SDS011;13816;53.628;9.950;2023-03-05T15:21:50;7.50;;;1.93;;
26040;SDS011;13816;53.628;9.950;2023-03-05T15:24:23;3.30;;;1.30;;
26040;SDS011;13816;53.628;9.950;2023-03-05T15:26:49;2.83;;;1.00;;
26040;SDS011;13816;53.628;9.950;2023-03-05T15:29:19;5.63;;;1.30;;
26040;SDS011;13816;53.628;9.950;2023-03-05T15:31:51;5.17;;;1.40;;
26040;SDS011;13816;53.628;9.950;2023-03-05T15:34:30;2.63;;;1.07;;
26040;SDS011;13816;53.628;9.950;2023-03-05T15:37:16;6.83;;;1.40;;
26040;SDS011;13816;53.628;9.950;2023-03-05T15:40:26;8.07;;;1.53;;
26040;SDS011;13816;53.628;9.950;2023-03-05T15:42:56;4.17;;;1.10;;
26040;SDS011;13816;53.628;9.950;2023-03-05T15:45:27;2.07;;;1.00;;
26040;SDS011;13816;53.628;9.950;2023-03-05T15:47:55;6.00;;;1.30;;
26040;SDS011;13816;53.628;9.950;2023-03-05T15:50:38;16.50;;;1.53;;
26040;SDS011;13816;53.628;9.950;2023-03-05T15:53:08;9.83;;;1.30;;
26040;SDS011;13816;53.628;9.950;2023-03-05T15:55:56;2.30;;;1.20;;
26040;SDS011;13816;53.628;9.950;2023-03-05T15:59:07;6.60;;;1.23;;
26040;SDS011;13816;53.628;9.950;2023-03-05T16:02:14;1.77;;;1.00;;
26040;SDS011;13816;53.628;9.950;2023-03-05T16:04:43;2.73;;;1.10;;
26040;SDS011;13816;53.628;9.950;2023-03-05T16:07:10;4.70;;;1.07;;
26040;SDS011;13816;53.628;9.950;2023-03-05T16:09:38;2.77;;;1.80;;
26040;SDS011;13816;53.628;9.950;2023-03-05T16:12:06;3.90;;;1.20;;
26040;SDS011;13816;53.628;9.950;2023-03-05T16:14:45;4.87;;;1.50;;
26040;SDS011;13816;53.628;9.950;2023-03-05T16:17:12;4.00;;;2.00;;
26040;SDS011;13816;53.628;9.950;2023-03-05T16:19:39;7.50;;;1.83;;
26040;SDS011;13816;53.628;9.950;2023-03-05T16:22:11;6.13;;;1.27;;
26040;SDS011;13816;53.628;9.950;2023-03-05T16:24:40;5.07;;;1.70;;
26040;SDS011;13816;53.628;9.950;2023-03-05T16:27:07;2.43;;;1.27;;
26040;SDS011;13816;53.628;9.950;2023-03-05T16:29:33;7.10;;;2.10;;
26040;SDS011;13816;53.628;9.950;2023-03-05T16:32:03;3.40;;;1.63;;
26040;SDS011;13816;53.628;9.950;2023-03-05T16:34:29;8.60;;;2.23;;
26040;SDS011;13816;53.628;9.950;2023-03-05T16:36:58;7.50;;;1.73;;
26040;SDS011;13816;53.628;9.950;2023-03-05T16:39:25;5.50;;;1.63;;
26040;SDS011;13816;53.628;9.950;2023-03-05T16:41:51;6.13;;;1.63;;
26040;SDS011;13816;53.628;9.950;2023-03-05T16:44:18;6.93;;;2.17;;
26040;SDS011;13816;53.628;9.950;2023-03-05T16:46:45;5.07;;;1.47;;
26040;SDS011;13816;53.628;9.950;2023-03-05T16:49:17;3.27;;;1.23;;